Time;durP1;ratioP1;P1;durP2;ratioP2;P2;SDS_P1;SDS_P2;PMS_P1;PMS_P2;Temp;Humidity;BMP_temperature;BMP_pressure;BME280_temperature;BME280_humidity;BME280_pressure;Samples;Min_cycle;Max_cycle;Signal;HPM_P1;HPM_P2
2021/01/27 00:00:13;;;;;;;14.63;8.07;;;;;;;-1.80;100.00;100720.53;5006055;28;20042;-70
2021/01/27 00:02:40;;;;;;;12.57;6.40;;;;;;;-1.80;100.00;100724.84;5000231;28;20038;-70
2021/01/27 00:05:10;;;;;;;11.83;6.07;;;;;;;-1.78;100.00;100729.22;5016686;28;20045;-70
2021/01/27 00:07:36;;;;;;;15.13;7.10;;;;;;;-1.78;100.00;100718.88;5003590;28;20538;-70
2021/01/27 00:10:04;;;;;;;13.93;6.43;;;;;;;-1.81;100.00;100723.09;5009185;28;20045;-70
2021/01/27 00:12:30;;;;;;;10.07;7.00;;;;;;;-1.83;100.00;100719.59;5025718;28;20048;-70
2021/01/27 00:14:56;;;;;;;13.50;6.27;;;;;;;-1.82;100.00;100722.22;5003369;28;20045;-70
2021/01/27 00:17:22;;;;;;;10.10;6.47;;;;;;;-1.84;100.00;100723.88;5009512;28;20038;-70
2021/01/27 00:19:49;;;;;;;10.13;5.47;;;;;;;-1.89;100.00;100727.16;5013880;28;20053;-70
2021/01/27 00:22:15;;;;;;;10.27;5.40;;;;;;;-1.91;100.00;100721.06;5005699;28;20041;-68
2021/01/27 00:24:41;;;;;;;8.97;4.90;;;;;;;-2.01;100.00;100725.06;5005495;28;20042;-70
2021/01/27 00:27:07;;;;;;;11.03;5.30;;;;;;;-2.00;100.00;100724.25;5006506;28;20049;-70
2021/01/27 00:29:34;;;;;;;10.30;5.80;;;;;;;-1.96;100.00;100722.63;5005539;28;20511;-70
2021/01/27 00:32:00;;;;;;;8.07;5.00;;;;;;;-2.06;100.00;100724.91;5005125;28;20042;-70
2021/01/27 00:34:26;;;;;;;11.23;5.87;;;;;;;-2.09;100.00;100724.84;5004930;28;20048;-70
2021/01/27 00:36:52;;;;;;;13.93;6.77;;;;;;;-2.10;100.00;100733.44;5000979;28;20042;-70
2021/01/27 00:39:19;;;;;;;10.77;5.30;;;;;;;-2.11;100.00;100735.94;5003895;28;20586;-70
2021/01/27 00:41:45;;;;;;;13.67;6.50;;;;;;;-2.04;100.00;100736.19;5006578;28;20052;-70
2021/01/27 00:44:11;;;;;;;12.97;6.23;;;;;;;-2.03;100.00;100740.53;5005625;28;20411;-70
2021/01/27 00:46:37;;;;;;;12.00;6.10;;;;;;;-2.07;100.00;100733.53;5005215;28;20049;-70
2021/01/27 00:49:04;;;;;;;14.43;6.70;;;;;;;-2.05;100.00;100730.97;5005009;28;20037;-70
2021/01/27 00:51:30;;;;;;;12.63;6.70;;;;;;;-2.04;100.00;100738.78;5007029;28;20553;-71
2021/01/27 00:53:57;;;;;;;16.77;7.13;;;;;;;-1.91;100.00;100737.47;5004498;28;20121;-70
2021/01/27 00:56:23;;;;;;;12.63;6.30;;;;;;;-1.87;100.00;100739.31;5006197;28;20100;-70
2021/01/27 00:58:49;;;;;;;12.33;6.57;;;;;;;-1.83;100.00;100732.53;5006875;28;20045;-70
2021/01/27 01:01:16;;;;;;;20.30;7.57;;;;;;;-1.80;100.00;100735.19;5014188;28;20516;-70
2021/01/27 01:03:42;;;;;;;13.00;6.73;;;;;;;-1.75;100.00;100733.63;5019547;28;20574;-70
2021/01/27 01:06:09;;;;;;;14.07;6.73;;;;;;;-1.73;100.00;100738.03;5004710;28;20161;-70
2021/01/27 01:08:35;;;;;;;13.57;6.60;;;;;;;-1.73;100.00;100743.19;5009124;28;20034;-70
2021/01/27 01:11:02;;;;;;;13.80;7.37;;;;;;;-1.65;100.00;100745.16;5020936;28;20041;-71
2021/01/27 01:13:30;;;;;;;14.30;6.97;;;;;;;-1.63;100.00;100736.59;5008927;28;20037;-71
2021/01/27 01:15:56;;;;;;;10.03;5.80;;;;;;;-1.63;100.00;100738.28;5023775;28;20042;-71
2021/01/27 01:18:22;;;;;;;15.47;6.57;;;;;;;-1.60;100.00;100740.97;5003965;28;20034;-71
2021/01/27 01:20:49;;;;;;;12.93;6.03;;;;;;;-1.60;100.00;100735.78;5021156;28;20042;-71
2021/01/27 01:23:20;;;;;;;18.00;6.67;;;;;;;-1.57;100.00;100730.72;5004751;28;20113;-71
2021/01/27 01:25:48;;;;;;;15.83;6.60;;;;;;;-1.58;100.00;100735.03;5004890;28;20041;-71
2021/01/27 01:28:15;;;;;;;14.50;7.27;;;;;;;-1.58;100.00;100728.97;5002278;28;20034;-71
2021/01/27 01:30:44;;;;;;;15.23;7.00;;;;;;;-1.53;100.00;100727.38;4988503;28;20538;-71
2021/01/27 01:33:19;;;;;;;16.17;7.50;;;;;;;-1.47;100.00;100727.56;5005533;28;20533;-71
2021/01/27 01:35:47;;;;;;;15.87;7.10;;;;;;;-1.50;100.00;100720.59;5004453;28;20038;-71
2021/01/27 01:38:14;;;;;;;12.20;6.80;;;;;;;-1.49;100.00;100724.03;4999512;28;20042;-71
2021/01/27 01:40:44;;;;;;;16.50;7.53;;;;;;;-1.49;100.00;100722.34;5006283;28;20522;-71
2021/01/27 01:43:20;;;;;;;12.10;6.73;;;;;;;-1.51;100.00;100723.13;4999345;28;20619;-71
2021/01/27 01:46:12;;;;;;;14.67;7.30;;;;;;;-1.50;100.00;100727.47;5004741;28;20701;-71
2021/01/27 01:48:54;;;;;;;13.60;6.73;;;;;;;-1.46;100.00;100721.53;5000446;28;20081;-71
2021/01/27 01:51:44;;;;;;;17.73;8.20;;;;;;;-1.50;100.00;100718.00;5020823;28;20038;-71
2021/01/27 01:54:40;;;;;;;15.17;6.60;;;;;;;-1.51;100.00;100717.94;5002365;28;20391;-71
2021/01/27 01:57:11;;;;;;;11.30;6.83;;;;;;;-1.52;100.00;100716.16;5004759;28;20033;-71
2021/01/27 01:59:38;;;;;;;15.03;8.07;;;;;;;-1.55;100.00;100721.28;5007831;28;20104;-71
2021/01/27 02:02:07;;;;;;;14.20;7.67;;;;;;;-1.63;100.00;100723.63;5010161;28;21311;-71
2021/01/27 02:04:43;;;;;;;12.50;7.27;;;;;;;-1.73;100.00;100717.31;5003951;28;20399;-71
2021/01/27 02:07:10;;;;;;;13.63;6.77;;;;;;;-1.82;100.00;100719.63;5007131;28;20440;-71
2021/01/27 02:09:36;;;;;;;11.33;6.63;;;;;;;-1.90;100.00;100718.50;5007201;28;20046;-71
2021/01/27 02:12:11;;;;;;;12.70;7.47;;;;;;;-1.92;100.00;100711.53;5008047;28;20088;-71
2021/01/27 02:15:00;;;;;;;14.63;7.53;;;;;;;-1.93;100.00;100708.06;5009325;28;20564;-71
2021/01/27 02:17:36;;;;;;;15.10;7.13;;;;;;;-2.02;100.00;100698.31;5005760;28;20085;-71
2021/01/27 02:20:16;;;;;;;18.43;7.97;;;;;;;-1.98;100.00;100696.69;4989026;28;20408;-71
2021/01/27 02:23:10;;;;;;;16.47;8.63;;;;;;;-2.03;100.00;100711.19;5015209;28;20237;-71
2021/01/27 02:26:14;;;;;;;15.20;8.20;;;;;;;-2.09;100.00;100704.13;5002872;28;20054;-71
2021/01/27 02:29:02;;;;;;;16.37;8.77;;;;;;;-2.19;100.00;100708.94;5007192;28;20041;-71
2021/01/27 02:31:38;;;;;;;22.67;10.67;;;;;;;-2.19;100.00;100708.94;5007764;28;20399;-71
2021/01/27 02:34:10;;;;;;;18.47;9.87;;;;;;;-2.20;100.00;100704.59;5007253;28;20731;-71
2021/01/27 02:36:43;;;;;;;19.73;10.30;;;;;;;-2.21;100.00;100713.19;5007216;28;20038;-71
2021/01/27 02:39:14;;;;;;;16.50;8.90;;;;;;;-2.28;100.00;100706.94;5007077;28;22006;-71
2021/01/27 02:41:58;;;;;;;20.00;10.50;;;;;;;-2.27;100.00;100709.59;4990205;28;20052;-71
2021/01/27 02:44:32;;;;;;;21.45;11.35;;;;;;;-2.24;100.00;100708.81;5004166;28;20034;-71
2021/01/27 02:47:00;;;;;;;19.67;10.18;;;;;;;-2.24;100.00;100714.00;5007700;28;20038;-71
2021/01/27 02:49:34;;;;;;;19.33;10.53;;;;;;;-2.26;100.00;100702.72;5005368;28;20125;-71
2021/01/27 02:52:06;;;;;;;24.00;12.40;;;;;;;-2.20;100.00;100712.38;4994942;28;20038;-71
2021/01/27 02:54:36;;;;;;;27.50;12.50;;;;;;;-2.20;100.00;100708.06;4996627;28;20042;-71
2021/01/27 02:57:11;;;;;;;19.33;11.67;;;;;;;-2.21;100.00;100705.44;5006433;28;20042;-71
2021/01/27 02:59:44;;;;;;;24.10;12.63;;;;;;;-2.17;100.00;100708.19;5007430;28;20537;-71
2021/01/27 03:02:16;;;;;;;26.93;12.60;;;;;;;-2.10;100.00;100701.47;5006269;28;20644;-71
2021/01/27 03:04:49;;;;;;;24.13;13.57;;;;;;;-2.12;100.00;100709.19;4988943;28;20038;-71
2021/01/27 03:07:17;;;;;;;22.90;11.85;;;;;;;-2.15;100.00;100709.09;5006300;28;20034;-71
2021/01/27 03:09:50;;;;;;;27.53;11.53;;;;;;;-2.18;100.00;100708.16;5006609;28;20096;-71
2021/01/27 03:12:16;;;;;;;21.53;11.87;;;;;;;-2.27;100.00;100711.28;5019168;23;20081;-71
2021/01/27 03:14:45;;;;;;;18.80;11.23;;;;;;;-2.32;100.00;100712.88;4983437;28;20487;-73
2021/01/27 03:17:13;;;;;;;29.97;12.70;;;;;;;-2.31;100.00;100710.31;4986917;28;20515;-70
2021/01/27 03:19:55;;;;;;;30.60;13.30;;;;;;;-2.28;100.00;100715.59;4967980;28;20042;-73
2021/01/27 03:22:24;;;;;;;24.70;12.13;;;;;;;-2.30;100.00;100713.78;4958367;28;20042;-72
2021/01/27 03:24:57;;;;;;;26.90;12.30;;;;;;;-2.26;100.00;100718.25;4986050;28;20038;-72
2021/01/27 03:27:37;;;;;;;25.77;12.13;;;;;;;-2.25;100.00;100716.53;4986857;28;20040;-72
2021/01/27 03:30:07;;;;;;;17.07;8.50;;;;;;;-2.38;100.00;100715.25;4971365;28;20046;-72
2021/01/27 03:32:33;;;;;;;21.10;9.83;;;;;;;-2.44;100.00;100718.50;4985401;28;20112;-72
2021/01/27 03:35:07;;;;;;;18.03;9.30;;;;;;;-2.47;100.00;100728.75;4980218;28;20048;-72
2021/01/27 03:37:49;;;;;;;18.50;9.82;;;;;;;-2.53;100.00;100723.38;4984925;28;20039;-72
2021/01/27 03:40:19;;;;;;;22.07;10.33;;;;;;;-2.55;100.00;100725.91;4986475;28;20101;-72
2021/01/27 03:42:57;;;;;;;18.90;9.07;;;;;;;-2.63;100.00;100722.19;4986316;28;20042;-72
2021/01/27 03:45:24;;;;;;;15.13;8.47;;;;;;;-2.68;100.00;100721.19;4994404;28;20082;-72
2021/01/27 03:48:07;;;;;;;16.50;8.00;;;;;;;-2.71;100.00;100722.75;4986237;28;20034;-72
2021/01/27 03:50:35;;;;;;;19.50;8.97;;;;;;;-2.77;100.00;100725.16;4981575;28;20057;-72
2021/01/27 03:53:04;;;;;;;17.03;8.50;;;;;;;-2.80;100.00;100725.91;4983447;28;20054;-72
2021/01/27 03:56:11;;;;;;;15.43;8.33;;;;;;;-2.88;100.00;100717.91;4983933;28;20070;-72
2021/01/27 03:58:39;;;;;;;21.80;9.97;;;;;;;-2.84;100.00;100724.94;4981917;28;20034;-72
2021/01/27 04:01:14;;;;;;;18.17;8.27;;;;;;;-2.83;100.00;100720.66;4986950;28;20043;-72
2021/01/27 04:03:41;;;;;;;13.63;7.57;;;;;;;-2.91;100.00;100720.38;4985438;28;20214;-72
2021/01/27 04:06:07;;;;;;;15.40;8.23;;;;;;;-2.97;100.00;100725.34;4968719;28;20913;-72
2021/01/27 04:08:34;;;;;;;19.00;8.80;;;;;;;-2.89;100.00;100729.06;4970216;28;20034;-72
2021/01/27 04:11:00;;;;;;;15.37;7.53;;;;;;;-2.96;100.00;100724.50;4986158;28;20043;-72
2021/01/27 04:13:27;;;;;;;17.33;7.63;;;;;;;-3.01;100.00;100720.03;4970509;28;20087;-72
2021/01/27 04:15:54;;;;;;;18.50;7.00;;;;;;;-3.02;100.00;100724.31;4985458;28;20049;-72
2021/01/27 04:18:20;;;;;;;15.87;7.30;;;;;;;-2.94;100.00;100725.47;4984992;28;20096;-72
2021/01/27 04:20:46;;;;;;;20.77;8.97;;;;;;;-2.84;100.00;100726.66;4985542;28;20076;-72
2021/01/27 04:23:13;;;;;;;17.47;8.70;;;;;;;-2.77;100.00;100728.63;4986021;28;20038;-72
2021/01/27 04:25:39;;;;;;;20.67;9.37;;;;;;;-2.69;100.00;100724.59;4986755;28;20050;-71
2021/01/27 04:28:05;;;;;;;18.63;9.70;;;;;;;-2.64;100.00;100716.97;4986502;28;20550;-71
2021/01/27 04:30:35;;;;;;;18.90;8.57;;;;;;;-2.57;100.00;100713.78;4986024;28;20038;-71
2021/01/27 04:33:04;;;;;;;16.87;8.40;;;;;;;-2.58;100.00;100722.38;4985481;28;20050;-72
2021/01/27 04:35:31;;;;;;;17.77;9.20;;;;;;;-2.55;100.00;100717.28;4986216;28;20148;-72
2021/01/27 04:37:58;;;;;;;17.47;8.93;;;;;;;-2.54;100.00;100711.28;4985706;28;20579;-73
2021/01/27 04:40:40;;;;;;;17.17;9.27;;;;;;;-2.52;100.00;100720.00;4987721;28;20050;-72
2021/01/27 04:43:21;;;;;;;22.93;10.10;;;;;;;-2.50;100.00;100722.63;4985331;28;20034;-72
2021/01/27 04:45:53;;;;;;;17.83;8.97;;;;;;;-2.46;100.00;100719.28;4984881;28;20047;-71
2021/01/27 04:48:49;;;;;;;17.67;9.20;;;;;;;-2.45;100.00;100716.75;4984428;28;20041;-72
2021/01/27 04:51:22;;;;;;;16.40;9.20;;;;;;;-2.42;100.00;100719.47;4966138;28;20081;-72
2021/01/27 04:54:06;;;;;;;18.23;9.47;;;;;;;-2.42;100.00;100710.81;4951006;28;20035;-72
2021/01/27 04:57:10;;;;;;;21.40;9.82;;;;;;;-2.47;100.00;100705.47;4972577;28;20085;-72
2021/01/27 04:59:49;;;;;;;21.20;10.30;;;;;;;-2.47;100.00;100709.78;4952838;28;20054;-72
2021/01/27 05:02:22;;;;;;;15.90;8.30;;;;;;;-2.49;100.00;100706.28;4964998;28;20054;-72
2021/01/27 05:04:59;;;;;;;19.80;10.07;;;;;;;-2.45;100.00;100703.81;4984869;28;20046;-72
2021/01/27 05:07:34;;;;;;;22.63;11.33;;;;;;;-2.43;100.00;100699.59;4986080;28;20045;-72
2021/01/27 05:10:02;;;;;;;20.80;8.73;;;;;;;-2.50;100.00;100702.81;4973956;28;20038;-72
2021/01/27 05:12:42;;;;;;;22.63;10.20;;;;;;;-2.47;100.00;100707.19;4986891;28;20391;-70
2021/01/27 05:15:09;;;;;;;25.23;11.83;;;;;;;-2.44;100.00;100704.69;4985388;28;20540;-71
2021/01/27 05:17:40;;;;;;;24.57;11.47;;;;;;;-2.39;100.00;100705.72;4984864;28;20081;-70
2021/01/27 05:20:07;;;;;;;25.60;11.97;;;;;;;-2.37;100.00;100697.19;4966746;28;20126;-68
2021/01/27 05:22:33;;;;;;;28.37;12.23;;;;;;;-2.34;100.00;100691.25;4963667;28;20059;-69
2021/01/27 05:24:59;;;;;;;29.53;13.50;;;;;;;-2.34;100.00;100689.53;4989585;28;20038;-68
2021/01/27 05:27:31;;;;;;;24.67;12.67;;;;;;;-2.35;100.00;100689.50;4991586;28;20487;-70
2021/01/27 05:30:11;;;;;;;27.03;12.40;;;;;;;-2.34;100.00;100694.72;4990804;28;20042;-70
2021/01/27 05:32:49;;;;;;;32.40;12.03;;;;;;;-2.33;100.00;100693.88;4989605;28;20038;-70
2021/01/27 05:35:29;;;;;;;26.27;12.37;;;;;;;-2.29;100.00;100687.94;4990814;28;20531;-70
2021/01/27 05:38:00;;;;;;;30.60;13.30;;;;;;;-2.29;100.00;100700.88;4989464;28;20042;-70
2021/01/27 05:40:26;;;;;;;33.10;12.93;;;;;;;-2.28;100.00;100692.28;4985660;28;20051;-71
2021/01/27 05:42:53;;;;;;;36.43;15.60;;;;;;;-2.25;100.00;100694.13;4987882;28;20089;-73
2021/01/27 05:45:39;;;;;;;29.27;12.23;;;;;;;-2.23;100.00;100692.44;4987920;28;20511;-73
2021/01/27 05:48:26;;;;;;;39.73;15.77;;;;;;;-2.25;100.00;100703.59;4989118;28;20558;-71
2021/01/27 05:51:10;;;;;;;40.70;15.53;;;;;;;-2.21;100.00;100692.50;4987306;28;20034;-71
2021/01/27 05:53:37;;;;;;;34.37;14.37;;;;;;;-2.24;100.00;100690.69;4987714;28;20579;-71
2021/01/27 05:56:08;;;;;;;37.53;14.40;;;;;;;-2.28;100.00;100694.00;4987351;28;20343;-71
2021/01/27 05:58:40;;;;;;;35.10;14.17;;;;;;;-2.27;100.00;100688.91;4989055;28;20117;-71
2021/01/27 06:01:12;;;;;;;33.10;15.00;;;;;;;-2.25;100.00;100695.84;4987710;28;20042;-71
2021/01/27 06:03:48;;;;;;;31.47;15.47;;;;;;;-2.24;100.00;100695.00;4988689;28;20069;-71
2021/01/27 06:06:14;;;;;;;36.27;16.20;;;;;;;-2.22;100.00;100693.34;4979141;28;20396;-71
2021/01/27 06:08:48;;;;;;;35.87;14.30;;;;;;;-2.19;100.00;100689.13;4988117;28;20084;-70
2021/01/27 06:11:15;;;;;;;;;;;;;;;-2.18;100.00;100688.31;4979244;28;20057;-71
2021/01/27 06:13:41;;;;;;;26.83;14.37;;;;;;;-2.17;100.00;100684.88;4987965;28;19961;-71
2021/01/27 06:16:22;;;;;;;39.90;14.33;;;;;;;-2.10;100.00;100689.44;4985519;28;20380;-72
2021/01/27 06:18:48;;;;;;;31.23;14.00;;;;;;;-2.11;100.00;100690.22;4989188;28;20156;-71
2021/01/27 06:21:33;;;;;;;34.93;16.00;;;;;;;-2.10;100.00;100696.28;4988427;28;20050;-71
2021/01/27 06:24:11;;;;;;;42.97;14.27;;;;;;;-2.08;100.00;100686.88;4988145;28;20062;-72
2021/01/27 06:26:55;;;;;;;31.13;16.17;;;;;;;-2.06;100.00;100696.44;4985388;28;20053;-71
2021/01/27 06:29:34;;;;;;;38.03;15.85;;;;;;;-2.04;100.00;100699.06;4987744;28;20512;-71
2021/01/27 06:32:29;;;;;;;40.27;16.87;;;;;;;-2.04;100.00;100689.59;4987019;28;20042;-71
2021/01/27 06:35:03;;;;;;;42.60;18.20;;;;;;;-2.02;100.00;100692.22;4987872;28;20559;-71
2021/01/27 06:38:00;;;;;;;38.13;15.52;;;;;;;-2.00;100.00;100691.47;4987967;28;20046;-71
2021/01/27 06:40:47;;;;;;;44.83;18.60;;;;;;;-1.98;100.00;100689.78;4989461;28;20035;-71
2021/01/27 06:43:35;;;;;;;40.90;16.07;;;;;;;-1.94;100.00;100684.69;4982350;28;20443;-71
2021/01/27 06:46:04;;;;;;;40.77;17.40;;;;;;;-1.91;100.00;100689.97;4989290;28;20038;-71
2021/01/27 06:48:43;;;;;;;39.60;16.60;;;;;;;-1.92;100.00;100686.53;4988105;28;20034;-71
2021/01/27 06:51:37;;;;;;;36.57;16.27;;;;;;;-1.90;100.00;100691.75;4987197;28;20030;-71
2021/01/27 06:54:24;;;;;;;43.47;17.80;;;;;;;-1.88;100.00;100695.25;4986980;28;20038;-71
2021/01/27 06:57:14;;;;;;;39.20;17.73;;;;;;;-1.87;100.00;100697.88;4985673;28;20038;-71
2021/01/27 07:00:05;;;;;;;39.07;16.63;;;;;;;-1.86;100.00;100704.81;4981629;28;20046;-71
2021/01/27 07:02:59;;;;;;;36.97;16.33;;;;;;;-1.83;100.00;100701.47;4970435;28;20034;-71
2021/01/27 07:05:34;;;;;;;54.17;19.63;;;;;;;-1.78;100.00;100703.31;4988502;28;20046;-71
2021/01/27 07:08:24;;;;;;;46.90;18.10;;;;;;;-1.73;100.00;100706.06;4986552;28;20131;-71
2021/01/27 07:11:08;;;;;;;44.93;18.03;;;;;;;-1.74;100.00;100701.72;4968622;28;20065;-71
2021/01/27 07:13:48;;;;;;;43.33;18.03;;;;;;;-1.75;100.00;100711.22;4983873;28;20065;-71
2021/01/27 07:16:28;;;;;;;49.33;18.63;;;;;;;-1.72;100.00;100694.88;4984673;28;20054;-71
2021/01/27 07:19:08;;;;;;;43.43;18.00;;;;;;;-1.71;100.00;100704.41;4984110;28;20034;-71
2021/01/27 07:21:43;;;;;;;43.60;18.77;;;;;;;-1.67;100.00;100708.84;4965229;28;20089;-71
2021/01/27 07:24:18;;;;;;;47.07;19.13;;;;;;;-1.66;100.00;100694.19;4985696;28;20112;-71
2021/01/27 07:26:45;;;;;;;47.30;19.10;;;;;;;-1.63;100.00;100700.31;4981921;28;20538;-71
2021/01/27 07:29:17;;;;;;;41.60;18.20;;;;;;;-1.56;100.00;100688.44;4986838;28;20034;-69
2021/01/27 07:31:56;;;;;;;43.40;18.17;;;;;;;-1.57;100.00;100694.44;4986788;28;20042;-69
2021/01/27 07:34:34;;;;;;;49.20;18.60;;;;;;;-1.54;100.00;100687.63;4987208;28;20057;-69
2021/01/27 07:37:32;;;;;;;52.57;19.83;;;;;;;-1.53;100.00;100667.78;4970149;28;20105;-69
2021/01/27 07:40:09;;;;;;;53.23;19.80;;;;;;;-1.46;100.00;100685.25;4984879;28;20039;-69
2021/01/27 07:42:37;;;;;;;38.20;18.23;;;;;;;-1.44;100.00;100681.00;4987358;28;20054;-69
2021/01/27 07:45:16;;;;;;;52.37;19.87;;;;;;;-1.45;100.00;100676.66;4986602;28;20495;-69
2021/01/27 07:47:49;;;;;;;39.57;18.90;;;;;;;-1.43;100.00;100691.44;4977003;28;20042;-69
2021/01/27 07:50:18;;;;;;;44.03;19.00;;;;;;;-1.37;100.00;100690.69;4972808;28;20100;-69
2021/01/27 07:52:51;;;;;;;56.63;22.57;;;;;;;-1.38;100.00;100694.13;4987620;28;20050;-69
2021/01/27 07:55:21;;;;;;;45.60;20.03;;;;;;;-1.37;100.00;100701.06;4988075;28;20042;-69
2021/01/27 07:58:10;;;;;;;45.80;21.27;;;;;;;-1.39;100.00;100692.38;4983961;28;20078;-69
2021/01/27 08:00:42;;;;;;;59.40;21.27;;;;;;;-1.38;100.00;100693.25;4978735;28;20069;-69
2021/01/27 08:03:34;;;;;;;49.67;20.97;;;;;;;-1.34;100.00;100679.56;4985093;28;20122;-69
2021/01/27 08:06:04;;;;;;;53.13;21.03;;;;;;;-1.27;100.00;100677.16;4979850;28;20034;-69
2021/01/27 08:08:30;;;;;;;52.63;22.67;;;;;;;-1.27;100.00;100682.34;4968811;28;20158;-69
2021/01/27 08:11:09;;;;;;;50.40;20.93;;;;;;;-1.23;100.00;100684.19;4980621;28;20039;-69
2021/01/27 08:13:39;;;;;;;51.70;22.13;;;;;;;-1.22;100.00;100685.94;4966483;28;20034;-69
2021/01/27 08:16:15;;;;;;;69.47;28.17;;;;;;;-1.19;100.00;100687.72;4984296;28;20054;-69
2021/01/27 08:19:10;;;;;;;57.97;23.40;;;;;;;-1.14;100.00;100691.34;4961046;28;20049;-69
2021/01/27 08:21:45;;;;;;;59.40;24.48;;;;;;;-1.08;100.00;100693.22;4980875;28;20042;-69
2021/01/27 08:24:36;;;;;;;49.73;21.77;;;;;;;-1.14;100.00;100693.94;4986147;28;20050;-69
2021/01/27 08:27:14;;;;;;;56.87;23.37;;;;;;;-1.11;100.00;100690.53;4984800;28;20042;-69
2021/01/27 08:30:05;;;;;;;57.17;25.33;;;;;;;-1.11;100.00;100683.63;4986838;28;20030;-69
2021/01/27 08:32:33;;;;;;;47.60;21.20;;;;;;;-1.08;100.00;100682.88;4987018;28;20120;-69
2021/01/27 08:35:22;;;;;;;55.17;24.93;;;;;;;-1.06;100.00;100688.97;4992389;28;20042;-69
2021/01/27 08:38:11;;;;;;;52.80;22.83;;;;;;;-1.02;100.00;100685.59;4982902;28;20065;-69
2021/01/27 08:40:38;;;;;;;49.20;23.50;;;;;;;-1.02;100.00;100685.59;4968785;28;20055;-69
2021/01/27 08:43:12;;;;;;;51.03;21.60;;;;;;;-0.99;100.00;100688.28;4981614;28;20030;-69
2021/01/27 08:45:38;;;;;;;66.57;24.88;;;;;;;-0.98;100.00;100683.13;4976928;28;20093;-69
2021/01/27 08:48:05;;;;;;;55.53;24.87;;;;;;;-0.95;100.00;100682.31;4986584;28;20459;-69
2021/01/27 08:50:52;;;;;;;64.93;27.73;;;;;;;-0.95;100.00;100683.19;4983415;28;20704;-69
2021/01/27 08:53:20;;;;;;;61.37;25.53;;;;;;;-0.92;100.00;100679.84;4962491;28;20543;-69
2021/01/27 08:55:46;;;;;;;58.20;23.27;;;;;;;-0.86;100.00;100673.06;4978884;28;20050;-69
2021/01/27 08:58:19;;;;;;;58.43;23.17;;;;;;;-0.83;100.00;100664.50;4984045;28;20030;-70
2021/01/27 09:00:46;;;;;;;68.47;29.57;;;;;;;-0.83;100.00;100674.00;4984083;28;20054;-69
2021/01/27 09:03:37;;;;;;;58.80;25.43;;;;;;;-0.77;100.00;100674.13;4985070;28;20031;-69
2021/01/27 09:06:05;;;;;;;66.90;27.50;;;;;;;-0.78;100.00;100670.66;4986165;28;20038;-70
2021/01/27 09:08:33;;;;;;;64.30;25.47;;;;;;;-0.72;100.00;100670.84;4985890;28;20092;-70
2021/01/27 09:11:06;;;;;;;71.40;27.13;;;;;;;-0.72;100.00;100665.66;4985154;28;20042;-70
2021/01/27 09:13:41;;;;;;;55.67;23.40;;;;;;;-0.63;100.00;100670.19;4964354;28;20096;-70
2021/01/27 09:16:15;;;;;;;59.53;24.03;;;;;;;-0.63;100.00;100667.59;4978493;28;20038;-70
2021/01/27 09:18:45;;;;;;;59.63;24.73;;;;;;;-0.59;100.00;100659.03;4979591;28;20050;-70
2021/01/27 09:21:19;;;;;;;58.67;24.70;;;;;;;-0.58;100.00;100655.63;4982656;28;20050;-70
2021/01/27 09:23:47;;;;;;;62.58;25.83;;;;;;;-0.52;100.00;100655.75;4964728;28;20042;-70
2021/01/27 09:26:21;;;;;;;73.60;27.93;;;;;;;-0.51;100.00;100656.63;4966010;28;20054;-70
2021/01/27 09:28:48;;;;;;;63.90;30.07;;;;;;;-0.45;100.00;100656.78;4967553;28;20050;-70
2021/01/27 09:31:23;;;;;;;62.73;27.43;;;;;;;-0.39;100.00;100656.94;4985773;28;20038;-70
2021/01/27 09:33:50;;;;;;;67.07;26.00;;;;;;;-0.36;100.00;100652.69;4964688;28;20046;-70
2021/01/27 09:36:26;;;;;;;68.43;25.10;;;;;;;-0.34;100.00;100657.91;4980339;28;20062;-70
2021/01/27 09:38:55;;;;;;;58.70;24.10;;;;;;;-0.31;100.00;100653.66;4979136;28;20042;-70
2021/01/27 09:41:24;;;;;;;70.13;26.83;;;;;;;-0.21;100.00;100646.97;4982984;28;20050;-70
2021/01/27 09:43:51;;;;;;;61.77;27.83;;;;;;;-0.12;100.00;100654.97;4976286;28;20890;-70
2021/01/27 09:46:38;;;;;;;63.53;26.37;;;;;;;-0.14;100.00;100653.19;4974216;28;20043;-69
2021/01/27 09:49:10;;;;;;;59.60;25.57;;;;;;;-0.17;100.00;100656.59;4982339;28;20062;-70
2021/01/27 09:51:39;;;;;;;61.70;25.97;;;;;;;-0.16;100.00;100653.16;4982649;28;20042;-70
2021/01/27 09:54:06;;;;;;;66.10;27.73;;;;;;;-0.15;100.00;100652.31;4982179;28;20043;-70
2021/01/27 09:56:32;;;;;;;67.23;28.33;;;;;;;-0.12;100.00;100662.75;4980967;28;20117;-70
2021/01/27 09:58:59;;;;;;;67.93;29.03;;;;;;;-0.10;100.00;100655.88;4982633;28;20038;-70
2021/01/27 10:01:27;;;;;;;69.77;29.93;;;;;;;-0.09;100.00;100657.63;4964957;28;20050;-69
2021/01/27 10:04:10;;;;;;;66.60;28.37;;;;;;;-0.03;100.00;100642.19;4974400;28;20307;-69
2021/01/27 10:06:54;;;;;;;66.33;26.77;;;;;;;0.01;100.00;100647.47;4978149;28;20035;-71
2021/01/27 10:09:24;;;;;;;67.13;27.83;;;;;;;0.04;100.00;100645.78;4983889;28;20046;-72
2021/01/27 10:12:03;;;;;;;68.37;29.63;;;;;;;0.05;100.00;100639.75;4986586;28;20043;-72
2021/01/27 10:14:31;;;;;;;57.03;26.57;;;;;;;0.14;100.00;100633.88;4987340;28;20042;-72
2021/01/27 10:17:00;;;;;;;58.63;25.63;;;;;;;0.30;100.00;100637.69;4968296;28;20062;-72
2021/01/27 10:19:30;;;;;;;62.20;27.47;;;;;;;0.43;100.00;100642.28;4965535;28;20137;-71
2021/01/27 10:21:58;;;;;;;55.63;27.73;;;;;;;0.48;100.00;100633.72;4986659;28;20042;-72
2021/01/27 10:24:44;;;;;;;60.90;27.83;;;;;;;0.48;100.00;100631.13;4970071;28;20093;-72
2021/01/27 10:27:19;;;;;;;57.77;24.53;;;;;;;0.47;100.00;100644.97;4990288;28;20042;-71
2021/01/27 10:29:45;;;;;;;56.35;24.88;;;;;;;0.52;100.00;100637.28;4981318;28;20061;-71
2021/01/27 10:32:41;;;;;;;52.03;25.00;;;;;;;0.56;100.00;100639.94;4984333;28;20038;-70
2021/01/27 10:35:33;;;;;;;55.87;25.83;;;;;;;0.62;100.00;100638.31;4983802;28;20082;-72
2021/01/27 10:38:08;;;;;;;50.97;23.67;;;;;;;0.61;100.00;100637.44;4977775;28;20059;-71
2021/01/27 10:40:35;;;;;;;51.80;22.20;;;;;;;0.65;100.00;100634.03;4983517;28;20042;-71
2021/01/27 10:43:10;;;;;;;49.53;22.67;;;;;;;0.60;100.00;100640.91;4982954;28;20403;-71
2021/01/27 10:45:41;;;;;;;50.97;22.40;;;;;;;0.57;100.00;100628.69;4985137;28;20046;-71
2021/01/27 10:48:13;;;;;;;55.07;24.17;;;;;;;0.72;100.00;100635.91;4982847;28;20050;-71
2021/01/27 10:50:44;;;;;;;48.07;23.03;;;;;;;0.77;100.00;100633.41;4982777;28;20043;-71
2021/01/27 10:53:28;;;;;;;51.67;25.23;;;;;;;0.81;100.00;100633.50;4981201;28;20049;-71
2021/01/27 10:55:55;;;;;;;48.43;24.20;;;;;;;0.93;100.00;100634.59;4982473;28;20073;-71
2021/01/27 10:58:22;;;;;;;48.23;23.47;;;;;;;0.96;100.00;100629.44;4983576;28;20053;-71
2021/01/27 11:00:49;;;;;;;48.47;23.33;;;;;;;1.07;100.00;100631.34;4964168;28;20047;-71
2021/01/27 11:03:17;;;;;;;42.93;22.30;;;;;;;1.15;100.00;100633.22;4981633;28;20531;-71
2021/01/27 11:05:44;;;;;;;45.17;21.43;;;;;;;1.17;100.00;100628.91;4982661;28;20042;-71
2021/01/27 11:08:31;;;;;;;40.63;20.27;;;;;;;1.32;100.00;100626.56;4982527;28;20046;-71
2021/01/27 11:10:59;;;;;;;49.70;26.03;;;;;;;1.59;100.00;100619.19;4981180;28;20038;-72
2021/01/27 11:13:25;;;;;;;40.73;19.33;;;;;;;1.75;100.00;100611.59;4981357;28;20097;-71
2021/01/27 11:15:51;;;;;;;40.10;22.93;;;;;;;1.94;100.00;100616.25;4973744;28;20034;-72
2021/01/27 11:18:18;;;;;;;39.63;22.07;;;;;;;1.90;100.00;100614.44;4981390;28;20030;-72
2021/01/27 11:20:46;;;;;;;40.60;20.10;;;;;;;1.79;100.00;100610.81;4984551;28;20176;-71
2021/01/27 11:23:13;;;;;;;41.10;18.77;;;;;;;1.81;100.00;100603.88;4981737;28;20045;-71
2021/01/27 11:25:39;;;;;;;38.03;19.90;;;;;;;1.88;100.00;100610.94;4972908;28;20046;-71
2021/01/27 11:28:06;;;;;;;38.40;19.77;;;;;;;1.90;100.00;100604.00;4983409;28;20488;-71
2021/01/27 11:30:32;;;;;;;37.90;18.73;;;;;;;1.89;100.00;100607.47;4976735;28;20046;-71
2021/01/27 11:32:58;;;;;;;38.07;20.30;;;;;;;1.98;100.00;100612.81;4977698;28;20038;-71